sensor_id;sensor_type;location;lat;lon;timestamp;pressure;altitude;pressure_sealevel;temperature;humidity
28911;BME280;16028;42.642;23.310;2023-08-31T00:00:55;93493.19;;;20.90;60.52
28911;BME280;16028;42.642;23.310;2023-08-31T00:03:22;93492.22;;;20.84;60.72
28911;BME280;16028;42.642;23.310;2023-08-31T00:05:49;93493.28;;;20.83;61.57
28911;BME280;16028;42.642;23.310;2023-08-31T00:08:16;93502.22;;;20.82;61.49
28911;BME280;16028;42.642;23.310;2023-08-31T00:10:43;93497.16;;;20.81;61.32
28911;BME280;16028;42.642;23.310;2023-08-31T00:13:10;93506.19;;;20.91;60.07
28911;BME280;16028;42.642;23.310;2023-08-31T00:15:38;93507.66;;;20.87;59.99
28911;BME280;16028;42.642;23.310;2023-08-31T00:18:06;93509.41;;;20.75;60.69
28911;BME280;16028;42.642;23.310;2023-08-31T00:20:33;93499.00;;;20.62;63.15
28911;BME280;16028;42.642;23.310;2023-08-31T00:23:00;93499.06;;;20.55;64.58
28911;BME280;16028;42.642;23.310;2023-08-31T00:25:27;93503.41;;;20.50;65.08
28911;BME280;16028;42.642;23.310;2023-08-31T00:27:55;93501.00;;;20.48;65.41
28911;BME280;16028;42.642;23.310;2023-08-31T00:30:29;93504.88;;;20.46;66.21
28911;BME280;16028;42.642;23.310;2023-08-31T00:32:58;93506.13;;;20.43;66.39
28911;BME280;16028;42.642;23.310;2023-08-31T00:35:26;93506.19;;;20.37;67.08
28911;BME280;16028;42.642;23.310;2023-08-31T00:37:53;93521.22;;;20.36;67.50
28911;BME280;16028;42.642;23.310;2023-08-31T00:40:22;93518.00;;;20.34;67.60
28911;BME280;16028;42.642;23.310;2023-08-31T00:42:49;93525.56;;;20.31;68.13
28911;BME280;16028;42.642;23.310;2023-08-31T00:45:17;93518.09;;;20.21;68.16
28911;BME280;16028;42.642;23.310;2023-08-31T00:47:44;93521.63;;;20.15;68.29
28911;BME280;16028;42.642;23.310;2023-08-31T00:50:14;93518.41;;;20.13;69.00
28911;BME280;16028;42.642;23.310;2023-08-31T00:52:41;93524.25;;;20.15;68.27
28911;BME280;16028;42.642;23.310;2023-08-31T00:55:10;93526.31;;;20.13;68.75
28911;BME280;16028;42.642;23.310;2023-08-31T00:57:37;93526.31;;;20.13;69.01
28911;BME280;16028;42.642;23.310;2023-08-31T01:00:04;93525.06;;;20.16;69.37
28911;BME280;16028;42.642;23.310;2023-08-31T01:02:38;93530.78;;;20.13;69.60
28911;BME280;16028;42.642;23.310;2023-08-31T01:05:11;93530.41;;;20.09;69.43
28911;BME280;16028;42.642;23.310;2023-08-31T01:07:46;93533.25;;;20.07;69.17
28911;BME280;16028;42.642;23.310;2023-08-31T01:10:22;93529.81;;;20.07;69.17
28911;BME280;16028;42.642;23.310;2023-08-31T01:12:55;93527.59;;;20.04;69.10
28911;BME280;16028;42.642;23.310;2023-08-31T01:15:27;93533.69;;;20.04;68.30
28911;BME280;16028;42.642;23.310;2023-08-31T01:17:57;93528.66;;;20.03;67.53
28911;BME280;16028;42.642;23.310;2023-08-31T01:20:30;93537.53;;;20.08;67.70
28911;BME280;16028;42.642;23.310;2023-08-31T01:23:02;93541.78;;;20.10;67.85
28911;BME280;16028;42.642;23.310;2023-08-31T01:25:31;93547.66;;;20.12;67.94
28911;BME280;16028;42.642;23.310;2023-08-31T01:27:59;93538.09;;;20.11;68.45
28911;BME280;16028;42.642;23.310;2023-08-31T01:30:29;93541.56;;;20.11;68.59
28911;BME280;16028;42.642;23.310;2023-08-31T01:32:56;93531.22;;;20.10;68.82
28911;BME280;16028;42.642;23.310;2023-08-31T01:35:23;93532.81;;;20.11;69.31
28911;BME280;16028;42.642;23.310;2023-08-31T01:37:53;93527.41;;;20.05;69.00
28911;BME280;16028;42.642;23.310;2023-08-31T01:40:25;93533.13;;;20.02;67.82
28911;BME280;16028;42.642;23.310;2023-08-31T01:43:01;93531.72;;;20.00;67.20
28911;BME280;16028;42.642;23.310;2023-08-31T01:45:30;93531.09;;;19.98;67.43
28911;BME280;16028;42.642;23.310;2023-08-31T01:47:58;93527.66;;;19.97;67.97
28911;BME280;16028;42.642;23.310;2023-08-31T01:50:25;93517.31;;;19.96;68.01
28911;BME280;16028;42.642;23.310;2023-08-31T01:52:52;93527.31;;;19.94;68.80
28911;BME280;16028;42.642;23.310;2023-08-31T01:55:19;93527.31;;;19.94;68.79
28911;BME280;16028;42.642;23.310;2023-08-31T01:57:47;93528.91;;;19.95;70.03
28911;BME280;16028;42.642;23.310;2023-08-31T02:00:16;93537.06;;;19.93;69.53
28911;BME280;16028;42.642;23.310;2023-08-31T02:02:43;93534.84;;;19.90;68.38
28911;BME280;16028;42.642;23.310;2023-08-31T02:05:10;93543.56;;;19.91;69.05
28911;BME280;16028;42.642;23.310;2023-08-31T02:07:37;93542.97;;;19.89;69.19
28911;BME280;16028;42.642;23.310;2023-08-31T02:10:06;93544.41;;;19.85;69.34
28911;BME280;16028;42.642;23.310;2023-08-31T02:12:33;93554.66;;;19.75;69.73
28911;BME280;16028;42.642;23.310;2023-08-31T02:15:01;93566.09;;;19.69;70.34
28911;BME280;16028;42.642;23.310;2023-08-31T02:17:31;93557.59;;;19.60;71.00
28911;BME280;16028;42.642;23.310;2023-08-31T02:19:57;93563.72;;;19.54;71.37
28911;BME280;16028;42.642;23.310;2023-08-31T02:22:25;93559.31;;;19.48;71.41
28911;BME280;16028;42.642;23.310;2023-08-31T02:24:52;93557.09;;;19.38;71.55
28911;BME280;16028;42.642;23.310;2023-08-31T02:27:19;93556.94;;;19.33;71.89
28911;BME280;16028;42.642;23.310;2023-08-31T02:29:46;93550.84;;;19.33;72.92
28911;BME280;16028;42.642;23.310;2023-08-31T02:32:13;93549.03;;;19.33;72.31
28911;BME280;16028;42.642;23.310;2023-08-31T02:34:41;93549.03;;;19.33;71.61
28911;BME280;16028;42.642;23.310;2023-08-31T02:37:08;93541.31;;;19.32;71.46
28911;BME280;16028;42.642;23.310;2023-08-31T02:39:35;93546.41;;;19.27;71.14
28911;BME280;16028;42.642;23.310;2023-08-31T02:42:01;93545.81;;;19.25;71.10
28911;BME280;16028;42.642;23.310;2023-08-31T02:44:30;93555.34;;;19.26;70.95
28911;BME280;16028;42.642;23.310;2023-08-31T02:46:57;93543.78;;;19.27;71.39
28911;BME280;16028;42.642;23.310;2023-08-31T02:49:24;93551.66;;;19.33;70.86
28911;BME280;16028;42.642;23.310;2023-08-31T02:51:52;93555.72;;;19.29;69.36
28911;BME280;16028;42.642;23.310;2023-08-31T02:54:19;93552.91;;;19.24;69.65
28911;BME280;16028;42.642;23.310;2023-08-31T02:56:45;93556.63;;;19.17;69.91
28911;BME280;16028;42.642;23.310;2023-08-31T02:59:12;93569.19;;;19.15;70.33
28911;BME280;16028;42.642;23.310;2023-08-31T03:01:39;93571.66;;;19.10;70.48
28911;BME280;16028;42.642;23.310;2023-08-31T03:04:06;93569.22;;;19.08;70.64
28911;BME280;16028;42.642;23.310;2023-08-31T03:06:33;93579.16;;;19.06;70.64
28911;BME280;16028;42.642;23.310;2023-08-31T03:09:01;93584.28;;;19.01;70.63
28911;BME280;16028;42.642;23.310;2023-08-31T03:11:30;93580.00;;;19.00;70.85
28911;BME280;16028;42.642;23.310;2023-08-31T03:13:56;93576.16;;;18.96;71.53
28911;BME280;16028;42.642;23.310;2023-08-31T03:16:23;93576.59;;;18.86;71.65
28911;BME280;16028;42.642;23.310;2023-08-31T03:18:50;93577.84;;;18.77;71.83
28911;BME280;16028;42.642;23.310;2023-08-31T03:21:17;93579.91;;;18.75;72.32
28911;BME280;16028;42.642;23.310;2023-08-31T03:23:43;93579.09;;;18.75;72.87
28911;BME280;16028;42.642;23.310;2023-08-31T03:26:11;93582.31;;;18.77;72.93
28911;BME280;16028;42.642;23.310;2023-08-31T03:28:38;93578.47;;;18.79;72.87
28911;BME280;16028;42.642;23.310;2023-08-31T03:31:06;93577.44;;;18.80;72.01
28911;BME280;16028;42.642;23.310;2023-08-31T03:33:32;93572.59;;;18.77;72.08
28911;BME280;16028;42.642;23.310;2023-08-31T03:36:00;93583.53;;;18.74;71.90
28911;BME280;16028;42.642;23.310;2023-08-31T03:38:27;93573.81;;;18.75;72.45
28911;BME280;16028;42.642;23.310;2023-08-31T03:40:55;93581.91;;;18.73;72.06
28911;BME280;16028;42.642;23.310;2023-08-31T03:43:24;93578.28;;;18.74;72.01
28911;BME280;16028;42.642;23.310;2023-08-31T03:45:53;93588.00;;;18.74;71.91
28911;BME280;16028;42.642;23.310;2023-08-31T03:48:22;93584.53;;;18.73;71.83
28911;BME280;16028;42.642;23.310;2023-08-31T03:50:49;93593.50;;;18.72;71.94
28911;BME280;16028;42.642;23.310;2023-08-31T03:53:16;93598.75;;;18.72;72.12
28911;BME280;16028;42.642;23.310;2023-08-31T03:55:43;93597.13;;;18.71;72.09
28911;BME280;16028;42.642;23.310;2023-08-31T03:58:10;93598.94;;;18.71;72.32
28911;BME280;16028;42.642;23.310;2023-08-31T04:00:38;93596.13;;;18.72;72.58
28911;BME280;16028;42.642;23.310;2023-08-31T04:03:05;93598.34;;;18.75;73.29
28911;BME280;16028;42.642;23.310;2023-08-31T04:05:32;93601.56;;;18.77;72.93
28911;BME280;16028;42.642;23.310;2023-08-31T04:08:00;93612.31;;;18.82;72.54
28911;BME280;16028;42.642;23.310;2023-08-31T04:10:28;93630.97;;;18.74;72.89
28911;BME280;16028;42.642;23.310;2023-08-31T04:12:55;93632.00;;;18.67;73.69
28911;BME280;16028;42.642;23.310;2023-08-31T04:15:22;93629.97;;;18.69;72.79
28911;BME280;16028;42.642;23.310;2023-08-31T04:17:50;93641.94;;;18.65;73.17
28911;BME280;16028;42.642;23.310;2023-08-31T04:20:17;93643.56;;;18.66;73.78
28911;BME280;16028;42.642;23.310;2023-08-31T04:22:44;93639.94;;;18.60;74.62
28911;BME280;16028;42.642;23.310;2023-08-31T04:25:11;93647.03;;;18.60;75.42
28911;BME280;16028;42.642;23.310;2023-08-31T04:27:38;93647.63;;;18.62;75.26
28911;BME280;16028;42.642;23.310;2023-08-31T04:30:06;93658.16;;;18.68;75.23
28911;BME280;16028;42.642;23.310;2023-08-31T04:32:33;93663.00;;;18.71;75.16
28911;BME280;16028;42.642;23.310;2023-08-31T04:35:02;93655.28;;;18.76;76.44
28911;BME280;16028;42.642;23.310;2023-08-31T04:37:31;93660.19;;;18.73;76.04
28911;BME280;16028;42.642;23.310;2023-08-31T04:39:58;93665.25;;;18.68;76.38
28911;BME280;16028;42.642;23.310;2023-08-31T04:42:24;93659.97;;;18.61;76.17
28911;BME280;16028;42.642;23.310;2023-08-31T04:44:51;93672.34;;;18.61;76.26
28911;BME280;16028;42.642;23.310;2023-08-31T04:47:18;93663.44;;;18.62;76.84
28911;BME280;16028;42.642;23.310;2023-08-31T04:49:45;93660.19;;;18.66;77.32
28911;BME280;16028;42.642;23.310;2023-08-31T04:52:13;93665.06;;;18.69;77.12
28911;BME280;16028;42.642;23.310;2023-08-31T04:54:40;93659.97;;;18.74;77.01
28911;BME280;16028;42.642;23.310;2023-08-31T04:57:07;93662.19;;;18.77;76.82
28911;BME280;16028;42.642;23.310;2023-08-31T04:59:33;93663.00;;;18.84;76.99
28911;BME280;16028;42.642;23.310;2023-08-31T05:02:00;93665.59;;;18.91;76.00
28911;BME280;16028;42.642;23.310;2023-08-31T05:04:27;93670.22;;;19.02;74.77
28911;BME280;16028;42.642;23.310;2023-08-31T05:06:56;93665.16;;;19.07;74.60
28911;BME280;16028;42.642;23.310;2023-08-31T05:09:24;93671.44;;;19.13;74.83
28911;BME280;16028;42.642;23.310;2023-08-31T05:11:52;93666.72;;;19.21;75.14
28911;BME280;16028;42.642;23.310;2023-08-31T05:14:18;93670.97;;;19.29;74.10
28911;BME280;16028;42.642;23.310;2023-08-31T05:16:45;93663.84;;;19.36;74.71
28911;BME280;16028;42.642;23.310;2023-08-31T05:19:12;93674.97;;;19.51;72.01
28911;BME280;16028;42.642;23.310;2023-08-31T05:21:39;93680.63;;;19.61;69.98
28911;BME280;16028;42.642;23.310;2023-08-31T05:24:06;93683.00;;;19.69;70.80
28911;BME280;16028;42.642;23.310;2023-08-31T05:26:34;93678.50;;;19.76;69.94
28911;BME280;16028;42.642;23.310;2023-08-31T05:29:01;93675.94;;;19.94;68.04
28911;BME280;16028;42.642;23.310;2023-08-31T05:31:29;93672.16;;;20.15;66.25
28911;BME280;16028;42.642;23.310;2023-08-31T05:33:56;93666.00;;;20.28;70.46
28911;BME280;16028;42.642;23.310;2023-08-31T05:36:23;93669.84;;;20.32;69.54
28911;BME280;16028;42.642;23.310;2023-08-31T05:38:50;93663.94;;;20.30;69.47
28911;BME280;16028;42.642;23.310;2023-08-31T05:41:17;93662.75;;;20.32;69.66
28911;BME280;16028;42.642;23.310;2023-08-31T05:43:45;93671.19;;;20.41;69.85
28911;BME280;16028;42.642;23.310;2023-08-31T05:46:12;93669.81;;;20.81;65.49
28911;BME280;16028;42.642;23.310;2023-08-31T05:48:39;93667.13;;;21.06;63.70
28911;BME280;16028;42.642;23.310;2023-08-31T05:51:06;93667.06;;;20.94;65.03
28911;BME280;16028;42.642;23.310;2023-08-31T05:53:32;93673.66;;;20.85;67.26
28911;BME280;16028;42.642;23.310;2023-08-31T05:56:00;93677.69;;;21.06;65.83
28911;BME280;16028;42.642;23.310;2023-08-31T05:58:30;93673.91;;;21.02;66.93
28911;BME280;16028;42.642;23.310;2023-08-31T06:00:59;93670.34;;;21.15;65.34
28911;BME280;16028;42.642;23.310;2023-08-31T06:03:26;93668.00;;;21.25;62.94
28911;BME280;16028;42.642;23.310;2023-08-31T06:05:54;93671.66;;;21.24;64.54
28911;BME280;16028;42.642;23.310;2023-08-31T06:08:21;93684.25;;;21.28;64.37
28911;BME280;16028;42.642;23.310;2023-08-31T06:10:48;93683.28;;;21.41;63.80
28911;BME280;16028;42.642;23.310;2023-08-31T06:13:14;93673.84;;;21.45;63.05
28911;BME280;16028;42.642;23.310;2023-08-31T06:15:41;93681.13;;;21.49;63.37
28911;BME280;16028;42.642;23.310;2023-08-31T06:18:11;93692.09;;;21.83;60.11
28911;BME280;16028;42.642;23.310;2023-08-31T06:20:38;93690.44;;;21.70;61.16
28911;BME280;16028;42.642;23.310;2023-08-31T06:23:05;93684.00;;;21.66;61.99
28911;BME280;16028;42.642;23.310;2023-08-31T06:25:32;93692.44;;;21.75;62.54
28911;BME280;16028;42.642;23.310;2023-08-31T06:28:00;93710.50;;;21.96;58.61
28911;BME280;16028;42.642;23.310;2023-08-31T06:30:28;93711.09;;;21.80;58.79
28911;BME280;16028;42.642;23.310;2023-08-31T06:32:54;93708.00;;;21.83;58.49
28911;BME280;16028;42.642;23.310;2023-08-31T06:35:23;93710.69;;;21.64;60.07
28911;BME280;16028;42.642;23.310;2023-08-31T06:37:50;93716.41;;;21.98;59.14
28911;BME280;16028;42.642;23.310;2023-08-31T06:40:17;93715.00;;;21.77;59.64
28911;BME280;16028;42.642;23.310;2023-08-31T06:42:44;93712.44;;;21.52;60.91
28911;BME280;16028;42.642;23.310;2023-08-31T06:45:10;93711.84;;;21.32;62.37
28911;BME280;16028;42.642;23.310;2023-08-31T06:47:37;93718.69;;;21.58;60.72
28911;BME280;16028;42.642;23.310;2023-08-31T06:50:05;93724.59;;;21.60;59.25
28911;BME280;16028;42.642;23.310;2023-08-31T06:52:33;93718.78;;;21.70;59.29
28911;BME280;16028;42.642;23.310;2023-08-31T06:55:00;93728.84;;;21.97;58.32
28911;BME280;16028;42.642;23.310;2023-08-31T06:57:31;93729.28;;;21.58;59.58
28911;BME280;16028;42.642;23.310;2023-08-31T06:59:58;93726.56;;;21.64;61.28
28911;BME280;16028;42.642;23.310;2023-08-31T07:02:26;93723.09;;;21.64;60.96
28911;BME280;16028;42.642;23.310;2023-08-31T07:04:53;93731.06;;;21.82;60.10
28911;BME280;16028;42.642;23.310;2023-08-31T07:07:20;93726.97;;;21.80;60.25
28911;BME280;16028;42.642;23.310;2023-08-31T07:09:48;93729.75;;;21.91;60.65
28911;BME280;16028;42.642;23.310;2023-08-31T07:12:15;93733.09;;;21.80;59.96
28911;BME280;16028;42.642;23.310;2023-08-31T07:14:42;93728.69;;;21.92;59.09
28911;BME280;16028;42.642;23.310;2023-08-31T07:17:09;93727.59;;;21.63;60.81
28911;BME280;16028;42.642;23.310;2023-08-31T07:19:36;93725.00;;;21.93;59.52
28911;BME280;16028;42.642;23.310;2023-08-31T07:22:03;93729.78;;;21.85;60.02
28911;BME280;16028;42.642;23.310;2023-08-31T07:24:31;93730.97;;;22.07;59.28
28911;BME280;16028;42.642;23.310;2023-08-31T07:27:02;93729.81;;;22.14;58.20
28911;BME280;16028;42.642;23.310;2023-08-31T07:29:29;93730.16;;;22.06;57.69
28911;BME280;16028;42.642;23.310;2023-08-31T07:31:56;93724.13;;;22.29;56.78
28911;BME280;16028;42.642;23.310;2023-08-31T07:34:23;93713.72;;;22.28;57.61
28911;BME280;16028;42.642;23.310;2023-08-31T07:36:50;93728.41;;;22.30;54.39
28911;BME280;16028;42.642;23.310;2023-08-31T07:39:16;93734.38;;;22.67;51.68
28911;BME280;16028;42.642;23.310;2023-08-31T07:41:44;93734.66;;;22.89;51.40
28911;BME280;16028;42.642;23.310;2023-08-31T07:44:12;93729.38;;;23.12;50.92
28911;BME280;16028;42.642;23.310;2023-08-31T07:46:39;93732.94;;;23.06;51.30
28911;BME280;16028;42.642;23.310;2023-08-31T07:49:06;93731.34;;;23.40;49.06
28911;BME280;16028;42.642;23.310;2023-08-31T07:51:32;93733.28;;;23.56;48.51
28911;BME280;16028;42.642;23.310;2023-08-31T07:54:00;93724.06;;;23.35;49.59
28911;BME280;16028;42.642;23.310;2023-08-31T07:56:28;93730.50;;;23.39;49.63
28911;BME280;16028;42.642;23.310;2023-08-31T07:58:55;93729.44;;;23.75;49.34
28911;BME280;16028;42.642;23.310;2023-08-31T08:01:23;93740.69;;;24.05;47.58
28911;BME280;16028;42.642;23.310;2023-08-31T08:03:50;93747.94;;;24.10;46.54
28911;BME280;16028;42.642;23.310;2023-08-31T08:06:17;93744.97;;;23.95;47.08
28911;BME280;16028;42.642;23.310;2023-08-31T08:08:43;93737.66;;;23.62;48.18
28911;BME280;16028;42.642;23.310;2023-08-31T08:11:10;93754.94;;;23.88;45.17
28911;BME280;16028;42.642;23.310;2023-08-31T08:13:40;93754.13;;;23.87;45.38
28911;BME280;16028;42.642;23.310;2023-08-31T08:16:06;93775.03;;;24.35;43.08
28911;BME280;16028;42.642;23.310;2023-08-31T08:18:35;93763.38;;;23.85;45.33
28911;BME280;16028;42.642;23.310;2023-08-31T08:21:02;93751.38;;;23.82;46.50
28911;BME280;16028;42.642;23.310;2023-08-31T08:23:29;93783.69;;;23.91;41.72
28911;BME280;16028;42.642;23.310;2023-08-31T08:25:56;93787.25;;;24.08;41.37
28911;BME280;16028;42.642;23.310;2023-08-31T08:28:24;93773.63;;;24.04;42.37
28911;BME280;16028;42.642;23.310;2023-08-31T08:30:51;93772.38;;;23.84;42.32
28911;BME280;16028;42.642;23.310;2023-08-31T08:33:18;93764.34;;;24.07;42.42
28911;BME280;16028;42.642;23.310;2023-08-31T08:35:46;93771.56;;;24.35;41.40
28911;BME280;16028;42.642;23.310;2023-08-31T08:38:13;93759.50;;;24.15;43.42
28911;BME280;16028;42.642;23.310;2023-08-31T08:40:40;93764.19;;;24.25;42.05
28911;BME280;16028;42.642;23.310;2023-08-31T08:43:07;93757.19;;;24.19;42.79
28911;BME280;16028;42.642;23.310;2023-08-31T08:45:36;93746.31;;;24.20;44.69
28911;BME280;16028;42.642;23.310;2023-08-31T08:48:05;93765.78;;;24.38;43.42
28911;BME280;16028;42.642;23.310;2023-08-31T08:50:33;93760.38;;;24.33;43.39
28911;BME280;16028;42.642;23.310;2023-08-31T08:53:02;93749.97;;;24.31;43.63
28911;BME280;16028;42.642;23.310;2023-08-31T08:55:29;93750.69;;;24.27;44.51
28911;BME280;16028;42.642;23.310;2023-08-31T08:57:55;93777.13;;;24.61;41.67
28911;BME280;16028;42.642;23.310;2023-08-31T09:00:22;93770.50;;;24.47;41.80
28911;BME280;16028;42.642;23.310;2023-08-31T09:02:49;93769.28;;;24.55;39.90
28911;BME280;16028;42.642;23.310;2023-08-31T09:05:16;93764.56;;;24.73;40.14
28911;BME280;16028;42.642;23.310;2023-08-31T09:08:02;93780.66;;;24.67;38.77
28911;BME280;16028;42.642;23.310;2023-08-31T09:10:36;93776.22;;;24.56;39.70
28911;BME280;16028;42.642;23.310;2023-08-31T09:13:07;93772.69;;;24.95;39.55
28911;BME280;16028;42.642;23.310;2023-08-31T09:15:43;93763.75;;;24.73;40.16
28911;BME280;16028;42.642;23.310;2023-08-31T09:18:23;93766.75;;;24.76;40.25
28911;BME280;16028;42.642;23.310;2023-08-31T09:20:51;93763.66;;;24.96;40.38
28911;BME280;16028;42.642;23.310;2023-08-31T09:23:19;93760.00;;;25.02;40.71
28911;BME280;16028;42.642;23.310;2023-08-31T09:25:48;93762.13;;;25.00;40.39
28911;BME280;16028;42.642;23.310;2023-08-31T09:28:16;93758.09;;;24.98;41.21
28911;BME280;16028;42.642;23.310;2023-08-31T09:30:45;93763.16;;;25.16;40.01
28911;BME280;16028;42.642;23.310;2023-08-31T09:33:14;93785.91;;;25.57;38.78
28911;BME280;16028;42.642;23.310;2023-08-31T09:35:47;93767.69;;;25.15;40.42
28911;BME280;16028;42.642;23.310;2023-08-31T09:38:15;93767.03;;;25.08;40.06
28911;BME280;16028;42.642;23.310;2023-08-31T09:40:43;93760.84;;;25.19;40.03
28911;BME280;16028;42.642;23.310;2023-08-31T09:43:10;93763.41;;;25.14;39.55
28911;BME280;16028;42.642;23.310;2023-08-31T09:45:37;93776.31;;;25.22;38.48
28911;BME280;16028;42.642;23.310;2023-08-31T09:48:05;93765.72;;;25.44;38.45
28911;BME280;16028;42.642;23.310;2023-08-31T09:50:33;93768.97;;;25.46;38.75
28911;BME280;16028;42.642;23.310;2023-08-31T09:53:01;93751.53;;;25.55;38.61
28911;BME280;16028;42.642;23.310;2023-08-31T09:55:30;93748.16;;;25.26;40.30
28911;BME280;16028;42.642;23.310;2023-08-31T09:58:00;93758.16;;;25.36;39.24
28911;BME280;16028;42.642;23.310;2023-08-31T10:00:29;93755.00;;;25.39;39.43
28911;BME280;16028;42.642;23.310;2023-08-31T10:02:58;93761.63;;;25.37;39.13
28911;BME280;16028;42.642;23.310;2023-08-31T10:05:26;93746.00;;;25.23;39.56
28911;BME280;16028;42.642;23.310;2023-08-31T10:07:54;93740.72;;;25.12;40.30
28911;BME280;16028;42.642;23.310;2023-08-31T10:10:21;93733.72;;;25.22;39.78
28911;BME280;16028;42.642;23.310;2023-08-31T10:12:49;93733.38;;;25.19;40.01
28911;BME280;16028;42.642;23.310;2023-08-31T10:15:18;93753.97;;;25.23;38.96
28911;BME280;16028;42.642;23.310;2023-08-31T10:17:46;93762.03;;;25.28;38.65
28911;BME280;16028;42.642;23.310;2023-08-31T10:20:15;93743.72;;;25.15;39.61
28911;BME280;16028;42.642;23.310;2023-08-31T10:22:42;93757.50;;;25.46;38.28
28911;BME280;16028;42.642;23.310;2023-08-31T10:25:10;93743.44;;;25.67;38.64
28911;BME280;16028;42.642;23.310;2023-08-31T10:27:38;93767.78;;;25.75;37.59
28911;BME280;16028;42.642;23.310;2023-08-31T10:30:19;93763.28;;;25.76;37.83
28911;BME280;16028;42.642;23.310;2023-08-31T10:33:19;93762.88;;;25.84;37.89
28911;BME280;16028;42.642;23.310;2023-08-31T10:35:51;93755.22;;;25.71;38.16
28911;BME280;16028;42.642;23.310;2023-08-31T10:38:26;93761.38;;;25.93;37.47
28911;BME280;16028;42.642;23.310;2023-08-31T10:41:18;93772.84;;;25.94;37.56
28911;BME280;16028;42.642;23.310;2023-08-31T10:43:49;93766.22;;;25.96;37.69
28911;BME280;16028;42.642;23.310;2023-08-31T10:46:27;93775.69;;;25.87;37.34
28911;BME280;16028;42.642;23.310;2023-08-31T10:48:57;93771.72;;;25.90;37.77
28911;BME280;16028;42.642;23.310;2023-08-31T10:51:26;93778.09;;;26.10;37.38
28911;BME280;16028;42.642;23.310;2023-08-31T10:54:07;93781.69;;;26.16;37.05
28911;BME280;16028;42.642;23.310;2023-08-31T10:59:21;93784.06;;;26.61;37.07
28911;BME280;16028;42.642;23.310;2023-08-31T11:01:55;93784.25;;;26.54;36.43
28911;BME280;16028;42.642;23.310;2023-08-31T11:04:24;93787.75;;;26.55;35.97
28911;BME280;16028;42.642;23.310;2023-08-31T11:07:15;93783.72;;;26.30;37.02
28911;BME280;16028;42.642;23.310;2023-08-31T11:09:43;93788.88;;;26.37;36.24
28911;BME280;16028;42.642;23.310;2023-08-31T11:12:10;93777.69;;;26.40;37.08
28911;BME280;16028;42.642;23.310;2023-08-31T11:14:37;93782.34;;;26.50;36.65
28911;BME280;16028;42.642;23.310;2023-08-31T11:17:05;93789.25;;;26.72;37.55
28911;BME280;16028;42.642;23.310;2023-08-31T11:19:34;93763.16;;;26.53;39.18
28911;BME280;16028;42.642;23.310;2023-08-31T11:22:02;93756.03;;;26.37;38.46
28911;BME280;16028;42.642;23.310;2023-08-31T11:24:29;93779.44;;;26.51;37.41
28911;BME280;16028;42.642;23.310;2023-08-31T11:26:56;93759.47;;;26.32;39.35
28911;BME280;16028;42.642;23.310;2023-08-31T11:29:23;93760.47;;;26.26;39.77
28911;BME280;16028;42.642;23.310;2023-08-31T11:31:50;93776.84;;;26.61;37.32
28911;BME280;16028;42.642;23.310;2023-08-31T11:34:18;93775.19;;;26.55;38.12
28911;BME280;16028;42.642;23.310;2023-08-31T11:36:47;93764.91;;;26.42;38.39
28911;BME280;16028;42.642;23.310;2023-08-31T11:39:17;93775.94;;;26.51;37.65
28911;BME280;16028;42.642;23.310;2023-08-31T11:41:44;93758.72;;;26.63;39.97
28911;BME280;16028;42.642;23.310;2023-08-31T11:44:11;93772.03;;;26.85;38.25
28911;BME280;16028;42.642;23.310;2023-08-31T11:46:40;93750.50;;;26.97;38.97
28911;BME280;16028;42.642;23.310;2023-08-31T11:49:08;93760.63;;;27.21;37.74
28911;BME280;16028;42.642;23.310;2023-08-31T11:51:36;93768.06;;;27.19;37.82
28911;BME280;16028;42.642;23.310;2023-08-31T11:54:06;93763.50;;;27.15;37.71
28911;BME280;16028;42.642;23.310;2023-08-31T11:56:40;93763.19;;;27.11;38.54
28911;BME280;16028;42.642;23.310;2023-08-31T11:59:08;93747.34;;;26.73;40.57
28911;BME280;16028;42.642;23.310;2023-08-31T12:01:38;93746.28;;;26.47;40.86
28911;BME280;16028;42.642;23.310;2023-08-31T12:04:09;93728.72;;;26.51;41.16
28911;BME280;16028;42.642;23.310;2023-08-31T12:06:36;93731.59;;;26.23;41.53
28911;BME280;16028;42.642;23.310;2023-08-31T12:09:06;93745.31;;;26.32;40.78
28911;BME280;16028;42.642;23.310;2023-08-31T12:11:32;93736.84;;;26.40;41.88
28911;BME280;16028;42.642;23.310;2023-08-31T12:14:00;93734.66;;;26.32;41.48
28911;BME280;16028;42.642;23.310;2023-08-31T12:16:32;93735.03;;;26.18;42.02
28911;BME280;16028;42.642;23.310;2023-08-31T12:18:59;93729.75;;;26.23;41.48
28911;BME280;16028;42.642;23.310;2023-08-31T12:21:26;93737.16;;;26.43;41.01
28911;BME280;16028;42.642;23.310;2023-08-31T12:23:52;93730.50;;;26.46;41.71
28911;BME280;16028;42.642;23.310;2023-08-31T12:26:21;93721.34;;;26.37;40.91
28911;BME280;16028;42.642;23.310;2023-08-31T12:28:48;93727.59;;;26.47;41.29
28911;BME280;16028;42.642;23.310;2023-08-31T12:31:14;93734.00;;;26.46;41.41
28911;BME280;16028;42.642;23.310;2023-08-31T12:33:41;93738.59;;;26.51;40.51
28911;BME280;16028;42.642;23.310;2023-08-31T12:36:11;93734.19;;;26.40;41.56
28911;BME280;16028;42.642;23.310;2023-08-31T12:38:38;93736.63;;;26.41;41.21
28911;BME280;16028;42.642;23.310;2023-08-31T12:41:04;93745.16;;;26.43;39.33
28911;BME280;16028;42.642;23.310;2023-08-31T12:43:33;93725.94;;;26.41;41.25
28911;BME280;16028;42.642;23.310;2023-08-31T12:46:00;93723.41;;;26.29;41.71
28911;BME280;16028;42.642;23.310;2023-08-31T12:48:30;93726.22;;;26.18;41.49
28911;BME280;16028;42.642;23.310;2023-08-31T12:50:57;93725.44;;;26.01;42.04
28911;BME280;16028;42.642;23.310;2023-08-31T12:53:24;93730.56;;;26.02;40.76
28911;BME280;16028;42.642;23.310;2023-08-31T12:55:51;93722.88;;;26.06;41.26
28911;BME280;16028;42.642;23.310;2023-08-31T12:58:17;93727.84;;;25.97;41.60